createdAt,value
2023-03-12T00:02:04.364Z,30.20
2023-03-12T00:04:36.474Z,30.20
2023-03-12T00:07:06.745Z,30.30
2023-03-12T00:09:37.896Z,30.30
2023-03-12T00:12:11.348Z,30.20
2023-03-12T00:14:40.206Z,30.20
2023-03-12T00:17:08.992Z,30.20
2023-03-12T00:19:37.651Z,30.20
2023-03-12T00:22:06.833Z,30.10
2023-03-12T00:24:35.549Z,30.30
2023-03-12T00:27:06.347Z,30.30
2023-03-12T00:29:38.661Z,30.40
2023-03-12T00:32:09.958Z,30.70
2023-03-12T00:34:38.685Z,30.60
2023-03-12T00:37:08.093Z,30.60
2023-03-12T00:39:37.132Z,30.60
2023-03-12T00:42:09.753Z,30.30
2023-03-12T00:44:39.951Z,30.50
2023-03-12T00:47:15.008Z,30.70
2023-03-12T00:49:44.010Z,30.80
2023-03-12T00:52:12.881Z,30.90
2023-03-12T00:54:41.950Z,31.10
2023-03-12T00:57:10.711Z,31.40
2023-03-12T00:59:43.508Z,31.30
2023-03-12T01:02:13.529Z,31.50
2023-03-12T01:04:42.151Z,31.50
2023-03-12T01:07:12.331Z,31.30
2023-03-12T01:09:42.343Z,31.40
2023-03-12T01:12:13.106Z,31.40
2023-03-12T01:14:44.909Z,31.50
2023-03-12T01:17:13.719Z,31.80
2023-03-12T01:19:44.486Z,31.70
2023-03-12T01:22:15.460Z,31.70
2023-03-12T01:24:44.221Z,31.90
2023-03-12T01:27:14.464Z,31.80
2023-03-12T01:29:45.955Z,31.90
2023-03-12T01:32:17.288Z,31.90
2023-03-12T01:34:58.426Z,31.70
2023-03-12T01:37:27.715Z,31.70
2023-03-12T01:39:56.569Z,31.50
2023-03-12T01:42:25.678Z,31.50
2023-03-12T01:45:03.730Z,31.40
2023-03-12T01:47:35.145Z,31.30
2023-03-12T01:50:04.862Z,31.50
2023-03-12T01:52:40.277Z,31.40
2023-03-12T01:55:14.842Z,31.40
2023-03-12T01:57:50.251Z,31.40
2023-03-12T02:00:24.349Z,31.40
2023-03-12T02:02:59.632Z,31.20
2023-03-12T02:05:39.262Z,31.30
2023-03-12T02:08:08.387Z,31.60
2023-03-12T02:10:37.061Z,31.70
2023-03-12T02:13:06.052Z,31.70
2023-03-12T02:15:39.244Z,31.70
2023-03-12T02:18:18.430Z,31.80
2023-03-12T02:20:58.250Z,31.80
2023-03-12T02:23:35.409Z,31.70
2023-03-12T02:26:08.677Z,31.80
2023-03-12T02:28:46.303Z,31.90
2023-03-12T02:31:23.439Z,31.80
2023-03-12T02:34:03.232Z,31.60
2023-03-12T02:36:33.386Z,31.40
2023-03-12T02:39:02.361Z,31.50
2023-03-12T02:41:39.741Z,31.30
2023-03-12T02:44:16.189Z,31.40
2023-03-12T02:46:54.215Z,31.50
2023-03-12T02:49:25.938Z,31.50
2023-03-12T02:51:57.692Z,31.60
2023-03-12T02:54:29.433Z,31.70
2023-03-12T02:57:04.956Z,31.80
2023-03-12T02:59:38.065Z,31.90
2023-03-12T03:02:07.691Z,31.80
2023-03-12T03:04:36.680Z,31.70
2023-03-12T03:07:07.323Z,31.90
2023-03-12T03:09:40.901Z,32.10
2023-03-12T03:12:12.996Z,32.10
2023-03-12T03:14:43.098Z,32.30
2023-03-12T03:17:13.950Z,32.30
2023-03-12T03:19:43.080Z,32.40
2023-03-12T03:22:13.955Z,32.30
2023-03-12T03:25:15.576Z,32.30
2023-03-12T03:27:38.149Z,32.30
2023-03-12T03:30:12.249Z,32.30
2023-03-12T03:32:41.493Z,32.00
2023-03-12T03:35:19.807Z,32.30
2023-03-12T03:37:48.868Z,32.20
2023-03-12T03:40:18.253Z,32.60
2023-03-12T03:42:54.753Z,32.60
2023-03-12T03:45:25.835Z,32.70
2023-03-12T03:47:56.260Z,33.10
2023-03-12T03:50:26.337Z,33.00
2023-03-12T03:52:55.234Z,33.30
2023-03-12T03:55:26.017Z,33.30
2023-03-12T03:57:58.789Z,33.50
2023-03-12T04:00:31.959Z,33.50
2023-03-12T04:03:11.808Z,33.30
2023-03-12T04:05:51.399Z,33.10
2023-03-12T04:08:20.344Z,33.10
2023-03-12T04:10:49.111Z,32.90
2023-03-12T04:13:19.399Z,32.80
2023-03-12T04:15:49.684Z,32.90
2023-03-12T04:18:20.981Z,32.40
2023-03-12T04:20:50.256Z,32.40
2023-03-12T04:23:19.057Z,32.60
2023-03-12T04:25:47.862Z,32.20
2023-03-12T04:28:21.935Z,32.00
2023-03-12T04:31:03.148Z,32.00
2023-03-12T04:33:51.273Z,32.00
2023-03-12T04:36:24.195Z,32.10
2023-03-12T04:38:57.452Z,32.20
2023-03-12T04:41:26.385Z,32.10
2023-03-12T04:44:01.308Z,32.10
2023-03-12T04:46:31.981Z,32.30
2023-03-12T04:49:07.002Z,32.10
2023-03-12T04:51:48.170Z,32.20
2023-03-12T04:54:17.158Z,32.10
2023-03-12T04:56:46.132Z,31.90
2023-03-12T04:59:16.621Z,32.00
2023-03-12T05:01:45.595Z,32.70
2023-03-12T05:04:14.635Z,32.00
2023-03-12T05:06:43.549Z,32.00
2023-03-12T05:09:12.345Z,31.90
2023-03-12T05:11:41.070Z,31.90
2023-03-12T05:14:11.055Z,31.90
2023-03-12T05:16:41.376Z,32.10
2023-03-12T05:19:10.329Z,32.40
2023-03-12T05:21:41.560Z,32.30
2023-03-12T05:24:13.386Z,32.20
2023-03-12T05:26:42.213Z,32.50
2023-03-12T05:29:12.488Z,32.40
2023-03-12T05:31:42.771Z,32.30
2023-03-12T05:34:14.502Z,32.30
2023-03-12T05:36:43.704Z,32.30
2023-03-12T05:39:12.510Z,32.10
2023-03-12T05:41:41.529Z,32.00
2023-03-12T05:44:16.272Z,31.90
2023-03-12T05:46:46.620Z,31.90
2023-03-12T05:49:15.267Z,32.10
2023-03-12T05:51:44.617Z,32.10
2023-03-12T05:54:13.562Z,31.90
2023-03-12T05:56:42.318Z,31.80
2023-03-12T05:59:11.848Z,32.00
2023-03-12T06:01:45.865Z,32.00
2023-03-12T06:04:15.977Z,32.30
2023-03-12T06:06:44.843Z,32.60
2023-03-12T06:09:15.598Z,33.00
2023-03-12T06:11:46.333Z,32.90
2023-03-12T06:14:16.598Z,32.60
2023-03-12T06:16:45.518Z,32.70
2023-03-12T06:19:16.138Z,32.50
2023-03-12T06:21:45.193Z,32.10
2023-03-12T06:24:14.121Z,32.10
2023-03-12T06:26:44.826Z,31.90
2023-03-12T06:29:14.830Z,31.70
2023-03-12T06:31:44.275Z,31.60
2023-03-12T06:34:13.529Z,31.30
2023-03-12T06:36:43.809Z,30.90
2023-03-12T06:39:12.897Z,30.80
2023-03-12T06:41:44.743Z,30.90
2023-03-12T06:44:13.627Z,30.90
2023-03-12T06:46:44.449Z,31.00
2023-03-12T06:49:13.943Z,30.80
2023-03-12T06:51:44.366Z,30.90
2023-03-12T06:54:13.210Z,30.70
2023-03-12T06:56:42.202Z,30.80
2023-03-12T06:59:11.147Z,30.40
2023-03-12T07:02:04.894Z,30.10
2023-03-12T07:09:32.854Z,29.00
2023-03-12T07:11:54.541Z,28.70
2023-03-12T07:14:27.116Z,28.60
2023-03-12T07:17:08.102Z,28.60
2023-03-12T07:19:49.905Z,28.10
2023-03-12T07:22:34.184Z,27.80
2023-03-12T07:25:17.274Z,27.80
2023-03-12T07:27:55.436Z,28.30
2023-03-12T07:30:40.970Z,28.60
2023-03-12T07:33:16.397Z,29.10
2023-03-12T07:36:10.435Z,28.30
2023-03-12T07:40:16.384Z,29.40
2023-03-12T07:41:40.847Z,29.30
2023-03-12T07:44:27.256Z,28.90
2023-03-12T07:47:02.966Z,29.00
2023-03-12T07:49:43.139Z,28.50
2023-03-12T07:52:12.194Z,28.00
2023-03-12T07:54:58.806Z,27.60
2023-03-12T07:57:27.699Z,27.50
2023-03-12T07:59:57.849Z,27.10
2023-03-12T08:02:26.548Z,27.00
2023-03-12T08:04:55.240Z,27.20
2023-03-12T08:07:23.934Z,27.20
2023-03-12T08:09:52.699Z,27.60
2023-03-12T08:12:21.384Z,27.80
2023-03-12T08:14:50.085Z,28.20
2023-03-12T08:17:20.494Z,28.70
2023-03-12T08:19:49.544Z,28.40
2023-03-12T08:22:18.376Z,28.80
2023-03-12T08:24:47.661Z,29.60
2023-03-12T08:27:20.129Z,29.80
2023-03-12T08:29:48.974Z,30.50
2023-03-12T08:32:20.706Z,30.90
2023-03-12T08:34:49.615Z,30.50
2023-03-12T08:37:25.653Z,30.50
2023-03-12T08:39:58.520Z,30.60
2023-03-12T08:42:27.459Z,31.10
2023-03-12T08:44:56.155Z,31.50
2023-03-12T08:47:26.670Z,31.50
2023-03-12T08:49:56.535Z,33.30
2023-03-12T08:52:25.375Z,34.60
2023-03-12T08:54:54.239Z,35.00
2023-03-12T08:57:23.012Z,35.10
2023-03-12T08:59:51.684Z,35.50
2023-03-12T09:02:21.587Z,35.70
2023-03-12T09:04:52.274Z,36.30
2023-03-12T09:07:22.375Z,36.30
2023-03-12T09:09:52.712Z,36.80
2023-03-12T09:12:23.679Z,36.70
2023-03-12T09:15:08.735Z,36.90
2023-03-12T09:17:38.094Z,37.20
2023-03-12T09:20:14.158Z,37.60
2023-03-12T09:22:43.458Z,37.30
2023-03-12T09:25:15.648Z,37.60
2023-03-12T09:27:47.590Z,38.00
2023-03-12T09:30:24.764Z,37.60
2023-03-12T09:32:53.574Z,38.00
2023-03-12T09:35:23.847Z,37.60
2023-03-12T09:37:52.696Z,37.90
2023-03-12T09:40:25.662Z,38.90
2023-03-12T09:42:59.041Z,40.20
2023-03-12T09:45:32.054Z,40.40
2023-03-12T09:48:04.351Z,40.50
2023-03-12T09:50:40.615Z,41.70
2023-03-12T09:53:16.118Z,43.00
2023-03-12T09:55:50.442Z,43.60
2023-03-12T09:58:28.656Z,43.80
2023-03-12T10:01:05.759Z,44.20
2023-03-12T10:04:03.826Z,44.70
2023-03-12T10:06:40.369Z,45.60
2023-03-12T10:09:38.569Z,45.10
2023-03-12T10:12:21.940Z,46.00
2023-03-12T10:15:09.398Z,46.10
2023-03-12T10:17:56.316Z,46.00
2023-03-12T10:20:56.691Z,45.80
2023-03-12T10:23:46.549Z,46.40
2023-03-12T10:26:23.697Z,46.30
2023-03-12T10:28:58.936Z,46.20
2023-03-12T10:31:36.137Z,46.60
2023-03-12T10:34:17.036Z,47.70
2023-03-12T10:36:48.389Z,48.20
2023-03-12T10:39:22.883Z,48.40
2023-03-12T10:41:53.167Z,48.50
2023-03-12T10:44:27.115Z,48.80
2023-03-12T10:47:19.106Z,49.10
2023-03-12T10:49:50.896Z,49.30
2023-03-12T10:52:22.147Z,49.20
2023-03-12T10:54:54.995Z,49.40
2023-03-12T10:57:24.048Z,49.30
2023-03-12T10:59:53.161Z,50.50
2023-03-12T11:02:36.749Z,49.90
2023-03-12T11:05:24.373Z,50.60
2023-03-12T11:07:54.097Z,50.00
2023-03-12T11:10:27.550Z,50.40
2023-03-12T11:13:02.223Z,50.80
2023-03-12T11:15:41.084Z,50.80
2023-03-12T11:18:35.466Z,50.70
2023-03-12T11:21:20.314Z,51.30
2023-03-12T11:24:16.227Z,51.70
2023-03-12T11:26:56.822Z,51.60
2023-03-12T11:29:31.669Z,52.30
2023-03-12T11:32:16.908Z,52.50
2023-03-12T11:34:47.804Z,52.70
2023-03-12T11:37:30.512Z,52.70
2023-03-12T11:40:17.020Z,52.90
2023-03-12T11:43:12.634Z,52.90
2023-03-12T11:45:58.484Z,52.90
2023-03-12T11:48:40.203Z,52.90
2023-03-12T11:51:26.768Z,52.70
2023-03-12T11:54:42.657Z,52.80
2023-03-12T11:57:22.485Z,52.80
2023-03-12T12:00:12.490Z,52.80
2023-03-12T12:03:41.144Z,52.50
2023-03-12T12:06:24.302Z,52.10
2023-03-12T12:09:20.359Z,52.30
2023-03-12T12:12:10.144Z,52.50
2023-03-12T12:15:03.992Z,53.30
2023-03-12T12:17:49.997Z,54.40
2023-03-12T12:20:42.406Z,56.80
2023-03-12T12:23:33.353Z,57.80
2023-03-12T12:26:10.884Z,58.40
2023-03-12T12:29:18.677Z,58.40
2023-03-12T12:31:56.860Z,58.20
2023-03-12T12:34:47.417Z,57.20
2023-03-12T12:37:47.669Z,58.60
2023-03-12T12:40:24.493Z,58.10
2023-03-12T12:43:05.385Z,56.40
2023-03-12T12:45:34.232Z,55.80
2023-03-12T12:48:11.285Z,57.00
2023-03-12T12:50:41.312Z,56.60
2023-03-12T12:53:25.352Z,56.20
2023-03-12T12:56:12.541Z,54.50
2023-03-12T12:59:03.521Z,52.80
2023-03-12T13:01:35.275Z,51.60
2023-03-12T13:04:15.219Z,51.10
2023-03-12T13:07:05.985Z,50.30
2023-03-12T13:09:45.412Z,50.30
2023-03-12T13:12:21.206Z,49.80
2023-03-12T13:14:53.655Z,48.90
2023-03-12T13:17:34.542Z,49.40
2023-03-12T13:20:18.046Z,49.40
2023-03-12T13:23:27.113Z,50.10
2023-03-12T13:26:05.080Z,50.60
2023-03-12T13:29:11.365Z,51.30
2023-03-12T13:31:46.169Z,49.50
2023-03-12T13:34:46.265Z,48.60
2023-03-12T13:38:03.297Z,48.40
2023-03-12T13:40:53.854Z,48.60
2023-03-12T13:43:56.322Z,50.20
2023-03-12T13:46:47.231Z,49.70
2023-03-12T13:49:19.917Z,49.10
2023-03-12T13:52:01.346Z,46.40
2023-03-12T13:54:41.733Z,45.90
2023-03-12T13:57:25.887Z,45.60
2023-03-12T13:59:54.722Z,45.60
2023-03-12T14:02:30.049Z,44.70
2023-03-12T14:05:07.788Z,44.70
2023-03-12T14:08:16.005Z,45.50
2023-03-12T14:11:06.460Z,45.70
2023-03-12T14:14:08.867Z,45.70
2023-03-12T14:16:43.437Z,45.60
2023-03-12T14:19:15.773Z,45.80
2023-03-12T14:21:56.762Z,45.50
2023-03-12T14:24:31.352Z,45.00
2023-03-12T14:27:03.694Z,44.60
2023-03-12T14:29:40.067Z,43.70
2023-03-12T14:32:19.753Z,43.40
2023-03-12T14:34:54.950Z,42.60
2023-03-12T14:37:29.485Z,41.70
2023-03-12T14:40:04.298Z,41.20
2023-03-12T14:42:37.018Z,41.90
2023-03-12T14:45:13.967Z,43.00
2023-03-12T14:47:43.303Z,44.00
2023-03-12T14:50:20.414Z,44.70
2023-03-12T14:52:49.244Z,45.80
2023-03-12T14:55:22.849Z,47.70
2023-03-12T14:58:05.870Z,50.00
2023-03-12T15:00:35.109Z,50.30
2023-03-12T15:03:12.821Z,50.20
2023-03-12T15:05:47.788Z,50.60
2023-03-12T15:08:17.860Z,50.90
2023-03-12T15:10:51.233Z,50.70
2023-03-12T15:13:23.980Z,50.00
2023-03-12T15:15:56.272Z,48.80
2023-03-12T15:18:29.116Z,48.80
2023-03-12T15:21:00.726Z,48.90
2023-03-12T15:23:33.375Z,47.90
2023-03-12T15:26:18.641Z,48.70
2023-03-12T15:28:59.762Z,45.50
2023-03-12T15:31:41.360Z,44.20
2023-03-12T15:34:12.900Z,38.60
2023-03-12T15:36:49.544Z,34.10
2023-03-12T15:39:27.876Z,35.80
2023-03-12T15:42:00.950Z,36.00
2023-03-12T15:44:44.236Z,37.50
2023-03-12T15:47:17.243Z,37.60
2023-03-12T15:49:53.011Z,37.40
2023-03-12T15:52:32.381Z,38.80
2023-03-12T15:55:09.202Z,39.40
2023-03-12T15:57:49.202Z,39.90
2023-03-12T16:00:29.498Z,39.80
2023-03-12T16:03:00.374Z,39.30
2023-03-12T16:05:33.260Z,41.70
2023-03-12T16:08:04.646Z,41.80
2023-03-12T16:10:38.768Z,40.40
2023-03-12T16:13:08.364Z,40.80
2023-03-12T16:15:40.779Z,40.70
2023-03-12T16:18:15.457Z,40.80
2023-03-12T16:20:44.420Z,41.20
2023-03-12T16:23:13.306Z,41.10
2023-03-12T16:25:44.710Z,40.60
2023-03-12T16:28:17.993Z,40.60
2023-03-12T16:30:48.296Z,40.70
2023-03-12T16:33:20.326Z,40.90
2023-03-12T16:35:51.103Z,41.00
2023-03-12T16:38:19.825Z,41.20
2023-03-12T16:40:50.816Z,41.20
2023-03-12T16:43:22.158Z,41.40
2023-03-12T16:45:54.473Z,40.60
2023-03-12T16:48:26.594Z,40.40
2023-03-12T16:50:58.880Z,40.20
2023-03-12T16:53:28.204Z,40.20
2023-03-12T16:55:59.875Z,40.90
2023-03-12T16:58:30.408Z,40.60
2023-03-12T17:01:00.614Z,40.50
2023-03-12T17:03:36.349Z,40.40
2023-03-12T17:06:07.521Z,40.10
2023-03-12T17:08:36.343Z,40.20
2023-03-12T17:11:15.288Z,40.40
2023-03-12T17:13:46.926Z,41.70
2023-03-12T17:16:17.428Z,42.40
2023-03-12T17:18:46.560Z,42.50
2023-03-12T17:21:18.551Z,42.70
2023-03-12T17:23:50.785Z,42.80
2023-03-12T17:26:20.534Z,43.30
2023-03-12T17:28:49.183Z,43.10
2023-03-12T17:31:19.497Z,43.40
2023-03-12T17:33:48.525Z,43.60
2023-03-12T17:36:17.240Z,43.80
2023-03-12T17:38:45.825Z,44.00
2023-03-12T17:41:26.022Z,44.20
2023-03-12T17:43:58.825Z,44.70
2023-03-12T17:46:29.813Z,44.80
2023-03-12T17:48:58.728Z,45.20
2023-03-12T17:51:27.337Z,45.20
2023-03-12T17:53:56.518Z,46.00
2023-03-12T17:56:34.869Z,46.20
2023-03-12T17:59:03.785Z,46.20
2023-03-12T18:01:36.201Z,46.40
2023-03-12T18:04:05.034Z,46.60
2023-03-12T18:06:33.802Z,47.10
2023-03-12T18:09:02.749Z,47.10
2023-03-12T18:11:31.814Z,47.20
2023-03-12T18:14:00.587Z,47.30
2023-03-12T18:16:29.476Z,47.20
2023-03-12T18:18:59.674Z,47.10
2023-03-12T18:21:28.492Z,47.10
2023-03-12T18:23:59.477Z,47.00
2023-03-12T18:26:31.072Z,47.20
2023-03-12T18:29:01.425Z,47.40
2023-03-12T18:31:30.446Z,47.50
2023-03-12T18:35:37.971Z,47.40
2023-03-12T18:37:44.976Z,47.10
2023-03-12T18:40:15.747Z,46.60
2023-03-12T18:43:02.555Z,46.60
2023-03-12T18:45:31.829Z,46.80
2023-03-12T18:48:03.733Z,46.80
2023-03-12T18:50:34.866Z,47.50
2023-03-12T18:53:04.363Z,47.80
2023-03-12T18:55:33.279Z,47.90
2023-03-12T18:58:02.428Z,48.80
2023-03-12T19:00:31.200Z,47.90
2023-03-12T19:03:01.299Z,47.90
2023-03-12T19:05:40.278Z,47.80
2023-03-12T19:08:10.972Z,47.80
2023-03-12T19:10:42.256Z,48.00
2023-03-12T19:13:12.710Z,48.40
2023-03-12T19:15:42.795Z,48.40
2023-03-12T19:18:15.703Z,48.30
2023-03-12T19:20:47.761Z,48.20
2023-03-12T19:23:18.086Z,48.40
2023-03-12T19:25:47.047Z,49.00
2023-03-12T19:28:15.909Z,49.20
2023-03-12T19:30:44.652Z,49.20
2023-03-12T19:33:15.558Z,49.40
2023-03-12T19:35:58.577Z,49.40
2023-03-12T19:38:38.786Z,49.30
2023-03-12T19:41:13.357Z,48.60
2023-03-12T19:43:46.476Z,48.90
2023-03-12T19:46:17.318Z,48.80
2023-03-12T19:48:46.095Z,49.00
2023-03-12T19:51:14.849Z,49.30
2023-03-12T19:53:47.020Z,49.40
2023-03-12T19:56:18.205Z,49.60
2023-03-12T19:58:49.112Z,49.70
2023-03-12T20:01:26.477Z,49.30
2023-03-12T20:03:57.346Z,49.30
2023-03-12T20:06:27.613Z,49.70
2023-03-12T20:08:58.132Z,48.80
2023-03-12T20:11:27.911Z,48.50
2023-03-12T20:13:56.733Z,48.50
2023-03-12T20:16:42.650Z,48.40
2023-03-12T20:19:21.107Z,48.30
2023-03-12T20:22:05.817Z,48.30
2023-03-12T20:25:12.226Z,48.40
2023-03-12T20:27:41.310Z,48.40
2023-03-12T20:30:22.532Z,48.10
2023-03-12T20:32:51.571Z,48.00
2023-03-12T20:35:35.709Z,47.80
2023-03-12T20:38:06.533Z,47.70
2023-03-12T20:40:51.272Z,47.90
2023-03-12T20:43:20.343Z,47.90
2023-03-12T20:45:52.110Z,48.00
2023-03-12T20:49:04.133Z,48.10
2023-03-12T20:51:25.255Z,48.20
2023-03-12T20:54:22.858Z,48.10
2023-03-12T20:56:54.628Z,48.10
2023-03-12T20:59:38.204Z,48.10
2023-03-12T21:02:07.202Z,48.40
2023-03-12T21:04:37.305Z,48.30
2023-03-12T21:07:06.419Z,48.30
2023-03-12T21:09:35.448Z,48.50
2023-03-12T21:12:06.255Z,48.50
2023-03-12T21:14:34.918Z,48.40
2023-03-12T21:17:04.053Z,48.40
2023-03-12T21:19:33.290Z,48.30
2023-03-12T21:22:02.397Z,48.10
2023-03-12T21:24:33.950Z,47.70
2023-03-12T21:27:13.157Z,48.00
2023-03-12T21:29:42.047Z,48.00
2023-03-12T21:32:11.180Z,48.00
2023-03-12T21:34:40.341Z,48.00
2023-03-12T21:37:21.649Z,48.00
2023-03-12T21:40:11.516Z,47.90
2023-03-12T21:42:44.470Z,47.90
2023-03-12T21:45:17.215Z,47.90
2023-03-12T21:47:46.078Z,47.90
2023-03-12T21:50:15.084Z,47.90
2023-03-12T21:52:49.067Z,47.80
2023-03-12T21:55:19.308Z,47.70
2023-03-12T21:57:49.768Z,47.60
2023-03-12T22:00:19.650Z,47.60
2023-03-12T22:02:48.765Z,47.50
2023-03-12T22:05:18.212Z,47.20
2023-03-12T22:07:47.129Z,47.40
2023-03-12T22:10:18.789Z,47.70
2023-03-12T22:12:53.468Z,48.00
2023-03-12T22:15:24.057Z,48.00
2023-03-12T22:17:52.940Z,47.70
2023-03-12T22:23:49.855Z,48.20
2023-03-12T22:26:23.607Z,48.00
2023-03-12T22:29:13.701Z,47.90
2023-03-12T22:35:04.203Z,47.50
2023-03-12T22:37:45.801Z,47.50
2023-03-12T22:40:18.096Z,47.30
2023-03-12T22:42:52.520Z,47.30
2023-03-12T22:45:26.591Z,47.30
2023-03-12T22:48:45.716Z,47.50
2023-03-12T22:50:59.352Z,47.60
2023-03-12T22:53:38.402Z,47.80
2023-03-12T22:56:13.350Z,47.80
2023-03-12T22:58:52.925Z,47.70
2023-03-12T23:01:24.601Z,47.60
2023-03-12T23:04:04.524Z,47.70
2023-03-12T23:06:35.044Z,47.60
2023-03-12T23:09:14.512Z,47.90
2023-03-12T23:11:54.222Z,48.40
2023-03-12T23:14:27.323Z,48.70
2023-03-12T23:17:00.237Z,48.90
2023-03-12T23:19:45.830Z,48.80
2023-03-12T23:22:45.666Z,48.70
2023-03-12T23:25:05.341Z,48.50
2023-03-12T23:27:34.552Z,47.30
2023-03-12T23:30:04.624Z,47.80
2023-03-12T23:32:36.269Z,48.10
2023-03-12T23:35:44.638Z,48.10
2023-03-12T23:38:03.694Z,48.40
2023-03-12T23:40:32.304Z,48.10
2023-03-12T23:43:07.065Z,48.30
2023-03-12T23:45:37.233Z,48.40
2023-03-12T23:48:20.281Z,48.30
2023-03-12T23:50:51.939Z,48.00
2023-03-12T23:53:20.717Z,47.50
2023-03-12T23:55:57.585Z,47.50
2023-03-12T23:58:29.436Z,47.20
